sensor_id;sensor_type;location;lat;lon;timestamp;pressure;altitude;pressure_sealevel;temperature;humidity
13732;BME280;6937;56.096;12.664;2024-02-21T00:00:40;101422.56;;;6.98;100.00
13732;BME280;6937;56.096;12.664;2024-02-21T00:03:06;101410.97;;;7.00;100.00
13732;BME280;6937;56.096;12.664;2024-02-21T00:05:32;101411.88;;;6.99;100.00
13732;BME280;6937;56.096;12.664;2024-02-21T00:07:59;101395.88;;;7.01;100.00
13732;BME280;6937;56.096;12.664;2024-02-21T00:10:24;101396.00;;;6.98;100.00
13732;BME280;6937;56.096;12.664;2024-02-21T00:12:50;101392.34;;;7.00;100.00
13732;BME280;6937;56.096;12.664;2024-02-21T00:15:16;101395.06;;;6.99;100.00
13732;BME280;6937;56.096;12.664;2024-02-21T00:17:43;101387.81;;;7.02;100.00
13732;BME280;6937;56.096;12.664;2024-02-21T00:20:09;101375.53;;;7.00;100.00
13732;BME280;6937;56.096;12.664;2024-02-21T00:22:35;101384.59;;;6.96;100.00
13732;BME280;6937;56.096;12.664;2024-02-21T00:25:01;101377.50;;;6.96;100.00
13732;BME280;6937;56.096;12.664;2024-02-21T00:27:26;101377.28;;;7.01;100.00
13732;BME280;6937;56.096;12.664;2024-02-21T00:29:51;101383.38;;;7.03;100.00
13732;BME280;6937;56.096;12.664;2024-02-21T00:32:17;101377.41;;;6.98;100.00
13732;BME280;6937;56.096;12.664;2024-02-21T00:34:43;101364.97;;;6.98;100.00
13732;BME280;6937;56.096;12.664;2024-02-21T00:37:08;101368.50;;;6.99;100.00
13732;BME280;6937;56.096;12.664;2024-02-21T00:39:33;101360.63;;;6.97;100.00
13732;BME280;6937;56.096;12.664;2024-02-21T00:41:59;101347.94;;;7.02;100.00
13732;BME280;6937;56.096;12.664;2024-02-21T00:44:24;101349.75;;;7.02;100.00
13732;BME280;6937;56.096;12.664;2024-02-21T00:46:50;101344.59;;;6.99;100.00
13732;BME280;6937;56.096;12.664;2024-02-21T00:49:16;101345.28;;;7.02;100.00
13732;BME280;6937;56.096;12.664;2024-02-21T00:51:41;101333.25;;;6.95;100.00
13732;BME280;6937;56.096;12.664;2024-02-21T00:54:06;101325.63;;;6.88;100.00
13732;BME280;6937;56.096;12.664;2024-02-21T00:56:32;101333.59;;;6.88;100.00
13732;BME280;6937;56.096;12.664;2024-02-21T00:58:57;101324.16;;;6.82;100.00
13732;BME280;6937;56.096;12.664;2024-02-21T01:01:25;101318.69;;;6.85;100.00
13732;BME280;6937;56.096;12.664;2024-02-21T01:03:51;101332.75;;;6.87;100.00
13732;BME280;6937;56.096;12.664;2024-02-21T01:06:21;101329.81;;;6.93;100.00
13732;BME280;6937;56.096;12.664;2024-02-21T01:08:47;101320.13;;;6.92;100.00
13732;BME280;6937;56.096;12.664;2024-02-21T01:11:13;101312.41;;;6.86;100.00
13732;BME280;6937;56.096;12.664;2024-02-21T01:13:39;101308.06;;;6.85;100.00
13732;BME280;6937;56.096;12.664;2024-02-21T01:16:05;101303.81;;;6.81;100.00
13732;BME280;6937;56.096;12.664;2024-02-21T01:18:32;101300.25;;;6.82;100.00
13732;BME280;6937;56.096;12.664;2024-02-21T01:20:58;101285.38;;;6.78;100.00
13732;BME280;6937;56.096;12.664;2024-02-21T01:23:24;101282.63;;;6.79;100.00
13732;BME280;6937;56.096;12.664;2024-02-21T01:25:49;101279.00;;;6.82;100.00
13732;BME280;6937;56.096;12.664;2024-02-21T01:28:15;101270.06;;;6.83;100.00
13732;BME280;6937;56.096;12.664;2024-02-21T01:30:40;101268.38;;;6.82;100.00
13732;BME280;6937;56.096;12.664;2024-02-21T01:33:05;101259.53;;;6.82;100.00
13732;BME280;6937;56.096;12.664;2024-02-21T01:35:31;101251.47;;;6.83;100.00
13732;BME280;6937;56.096;12.664;2024-02-21T01:37:56;101264.47;;;6.89;100.00
13732;BME280;6937;56.096;12.664;2024-02-21T01:40:21;101260.84;;;6.90;100.00
13732;BME280;6937;56.096;12.664;2024-02-21T01:42:47;101240.84;;;6.83;100.00
13732;BME280;6937;56.096;12.664;2024-02-21T01:45:13;101240.06;;;6.81;100.00
13732;BME280;6937;56.096;12.664;2024-02-21T01:47:39;101250.59;;;6.82;100.00
13732;BME280;6937;56.096;12.664;2024-02-21T01:50:05;101239.75;;;6.87;100.00
13732;BME280;6937;56.096;12.664;2024-02-21T01:52:33;101227.28;;;6.89;100.00
13732;BME280;6937;56.096;12.664;2024-02-21T01:54:59;101218.50;;;6.87;100.00
13732;BME280;6937;56.096;12.664;2024-02-21T01:57:26;101216.47;;;6.92;100.00
13732;BME280;6937;56.096;12.664;2024-02-21T01:59:52;101224.38;;;6.94;100.00
13732;BME280;6937;56.096;12.664;2024-02-21T02:02:17;101216.66;;;6.89;100.00
13732;BME280;6937;56.096;12.664;2024-02-21T02:04:43;101197.25;;;6.87;100.00
13732;BME280;6937;56.096;12.664;2024-02-21T02:07:10;101206.78;;;6.91;100.00
13732;BME280;6937;56.096;12.664;2024-02-21T02:09:36;101205.91;;;6.91;100.00
13732;BME280;6937;56.096;12.664;2024-02-21T02:12:01;101200.59;;;6.91;100.00
13732;BME280;6937;56.096;12.664;2024-02-21T02:14:27;101200.72;;;6.89;100.00
13732;BME280;6937;56.096;12.664;2024-02-21T02:16:52;101200.84;;;6.86;100.00
13732;BME280;6937;56.096;12.664;2024-02-21T02:19:18;101201.47;;;6.91;100.00
13732;BME280;6937;56.096;12.664;2024-02-21T02:21:49;101191.78;;;6.90;100.00
13732;BME280;6937;56.096;12.664;2024-02-21T02:24:22;101180.38;;;6.88;100.00
13732;BME280;6937;56.096;12.664;2024-02-21T02:26:49;101182.09;;;6.89;100.00
13732;BME280;6937;56.096;12.664;2024-02-21T02:29:14;101183.91;;;6.89;100.00
13732;BME280;6937;56.096;12.664;2024-02-21T02:31:40;101169.75;;;6.88;100.00
13732;BME280;6937;56.096;12.664;2024-02-21T02:34:05;101161.84;;;6.87;100.00
13732;BME280;6937;56.096;12.664;2024-02-21T02:36:33;101162.41;;;6.93;100.00
13732;BME280;6937;56.096;12.664;2024-02-21T02:38:59;101156.47;;;6.88;100.00
13732;BME280;6937;56.096;12.664;2024-02-21T02:41:25;101134.41;;;6.86;100.00
13732;BME280;6937;56.096;12.664;2024-02-21T02:43:50;101127.25;;;6.88;100.00
13732;BME280;6937;56.096;12.664;2024-02-21T02:46:15;101122.84;;;6.87;100.00
13732;BME280;6937;56.096;12.664;2024-02-21T02:48:41;101108.81;;;6.85;100.00
13732;BME280;6937;56.096;12.664;2024-02-21T02:51:06;101102.53;;;6.86;100.00
13732;BME280;6937;56.096;12.664;2024-02-21T02:53:32;101104.19;;;6.89;100.00
13732;BME280;6937;56.096;12.664;2024-02-21T02:55:57;101107.56;;;6.92;100.00
13732;BME280;6937;56.096;12.664;2024-02-21T02:58:23;101104.56;;;6.98;100.00
13732;BME280;6937;56.096;12.664;2024-02-21T03:00:48;101102.53;;;7.03;100.00
13732;BME280;6937;56.096;12.664;2024-02-21T03:03:14;101092.84;;;7.02;100.00
13732;BME280;6937;56.096;12.664;2024-02-21T03:05:39;101103.41;;;7.04;100.00
13732;BME280;6937;56.096;12.664;2024-02-21T03:08:05;101100.41;;;7.10;100.00
13732;BME280;6937;56.096;12.664;2024-02-21T03:10:33;101091.41;;;7.12;100.00
13732;BME280;6937;56.096;12.664;2024-02-21T03:12:58;101088.06;;;7.09;100.00
13732;BME280;6937;56.096;12.664;2024-02-21T03:15:24;101078.78;;;7.00;100.00
13732;BME280;6937;56.096;12.664;2024-02-21T03:17:49;101083.94;;;7.03;100.00
13732;BME280;6937;56.096;12.664;2024-02-21T03:20:15;101090.34;;;6.99;100.00
13732;BME280;6937;56.096;12.664;2024-02-21T03:22:40;101086.81;;;6.99;100.00
13732;BME280;6937;56.096;12.664;2024-02-21T03:25:06;101076.19;;;6.99;100.00
13732;BME280;6937;56.096;12.664;2024-02-21T03:27:32;101063.84;;;6.98;100.00
13732;BME280;6937;56.096;12.664;2024-02-21T03:29:57;101071.69;;;7.01;100.00
13732;BME280;6937;56.096;12.664;2024-02-21T03:32:23;101058.28;;;7.02;100.00
13732;BME280;6937;56.096;12.664;2024-02-21T03:34:49;101064.41;;;7.04;100.00
13732;BME280;6937;56.096;12.664;2024-02-21T03:37:14;101061.81;;;7.03;100.00
13732;BME280;6937;56.096;12.664;2024-02-21T03:39:40;101053.91;;;7.01;100.00
13732;BME280;6937;56.096;12.664;2024-02-21T03:42:06;101058.38;;;7.01;100.00
13732;BME280;6937;56.096;12.664;2024-02-21T03:44:32;101067.06;;;7.04;100.00
13732;BME280;6937;56.096;12.664;2024-02-21T03:46:59;101052.75;;;7.07;100.00
13732;BME280;6937;56.096;12.664;2024-02-21T03:49:24;101060.66;;;7.08;100.00
13732;BME280;6937;56.096;12.664;2024-02-21T03:51:49;101054.13;;;7.14;100.00
13732;BME280;6937;56.096;12.664;2024-02-21T03:54:15;101060.53;;;7.27;100.00
13732;BME280;6937;56.096;12.664;2024-02-21T03:56:40;101060.16;;;7.33;100.00
13732;BME280;6937;56.096;12.664;2024-02-21T03:59:07;101059.13;;;7.36;100.00
13732;BME280;6937;56.096;12.664;2024-02-21T04:01:33;101056.16;;;7.42;100.00
13732;BME280;6937;56.096;12.664;2024-02-21T04:03:59;101068.75;;;7.54;100.00
13732;BME280;6937;56.096;12.664;2024-02-21T04:06:24;101060.53;;;7.58;100.00
13732;BME280;6937;56.096;12.664;2024-02-21T04:08:49;101058.56;;;7.62;100.00
13732;BME280;6937;56.096;12.664;2024-02-21T04:11:15;101066.47;;;7.63;100.00
13732;BME280;6937;56.096;12.664;2024-02-21T04:13:40;101063.81;;;7.63;100.00
13732;BME280;6937;56.096;12.664;2024-02-21T04:16:06;101055.84;;;7.63;100.00
13732;BME280;6937;56.096;12.664;2024-02-21T04:18:31;101089.38;;;7.66;100.00
13732;BME280;6937;56.096;12.664;2024-02-21T04:20:56;101064.31;;;7.70;100.00
13732;BME280;6937;56.096;12.664;2024-02-21T04:23:22;101070.50;;;7.70;100.00
13732;BME280;6937;56.096;12.664;2024-02-21T04:25:47;101079.25;;;7.72;100.00
13732;BME280;6937;56.096;12.664;2024-02-21T04:28:13;101067.59;;;7.75;100.00
13732;BME280;6937;56.096;12.664;2024-02-21T04:30:38;101085.34;;;7.74;100.00
13732;BME280;6937;56.096;12.664;2024-02-21T04:33:03;101096.06;;;7.73;100.00
13732;BME280;6937;56.096;12.664;2024-02-21T04:35:29;101096.06;;;7.73;100.00
13732;BME280;6937;56.096;12.664;2024-02-21T04:37:56;101081.47;;;7.80;100.00
13732;BME280;6937;56.096;12.664;2024-02-21T04:40:22;101082.09;;;7.85;100.00
13732;BME280;6937;56.096;12.664;2024-02-21T04:42:47;101101.41;;;7.89;100.00
13732;BME280;6937;56.096;12.664;2024-02-21T04:45:13;101092.25;;;7.94;100.00
13732;BME280;6937;56.096;12.664;2024-02-21T04:47:39;101062.34;;;7.89;100.00
13732;BME280;6937;56.096;12.664;2024-02-21T04:50:04;101069.47;;;7.89;100.00
13732;BME280;6937;56.096;12.664;2024-02-21T04:52:31;101057.78;;;7.91;100.00
13732;BME280;6937;56.096;12.664;2024-02-21T04:54:56;101064.66;;;7.95;100.00
13732;BME280;6937;56.096;12.664;2024-02-21T04:57:21;101047.00;;;7.94;100.00
13732;BME280;6937;56.096;12.664;2024-02-21T04:59:47;101054.88;;;7.96;100.00
13732;BME280;6937;56.096;12.664;2024-02-21T05:02:15;101047.25;;;7.90;100.00
13732;BME280;6937;56.096;12.664;2024-02-21T05:04:42;101036.84;;;7.85;100.00
13732;BME280;6937;56.096;12.664;2024-02-21T05:07:07;101033.50;;;7.82;100.00
13732;BME280;6937;56.096;12.664;2024-02-21T05:09:33;101025.34;;;7.85;100.00
13732;BME280;6937;56.096;12.664;2024-02-21T05:11:58;101020.03;;;7.85;100.00
13732;BME280;6937;56.096;12.664;2024-02-21T05:14:27;101014.88;;;7.82;100.00
13732;BME280;6937;56.096;12.664;2024-02-21T05:16:53;101012.59;;;7.75;100.00
13732;BME280;6937;56.096;12.664;2024-02-21T05:19:18;101004.75;;;7.72;100.00
13732;BME280;6937;56.096;12.664;2024-02-21T05:21:44;100986.31;;;7.69;100.00
13732;BME280;6937;56.096;12.664;2024-02-21T05:24:09;100993.53;;;7.67;100.00
13732;BME280;6937;56.096;12.664;2024-02-21T05:26:35;100983.16;;;7.63;100.00
13732;BME280;6937;56.096;12.664;2024-02-21T05:29:00;100985.81;;;7.63;100.00
13732;BME280;6937;56.096;12.664;2024-02-21T05:31:26;100966.59;;;7.58;100.00
13732;BME280;6937;56.096;12.664;2024-02-21T05:34:07;100967.44;;;7.58;100.00
13732;BME280;6937;56.096;12.664;2024-02-21T05:36:33;100960.59;;;7.54;100.00
13732;BME280;6937;56.096;12.664;2024-02-21T05:39:00;100951.06;;;7.50;100.00
13732;BME280;6937;56.096;12.664;2024-02-21T05:41:25;100954.00;;;7.46;100.00
13732;BME280;6937;56.096;12.664;2024-02-21T05:43:51;100957.41;;;7.48;100.00
13732;BME280;6937;56.096;12.664;2024-02-21T05:46:19;100950.56;;;7.44;100.00
13732;BME280;6937;56.096;12.664;2024-02-21T05:48:44;100945.41;;;7.41;100.00
13732;BME280;6937;56.096;12.664;2024-02-21T05:51:10;100938.50;;;7.38;100.00
13732;BME280;6937;56.096;12.664;2024-02-21T05:53:36;100943.94;;;7.35;100.00
13732;BME280;6937;56.096;12.664;2024-02-21T05:56:10;100937.19;;;7.29;100.00
13732;BME280;6937;56.096;12.664;2024-02-21T05:58:35;100930.41;;;7.24;100.00
13732;BME280;6937;56.096;12.664;2024-02-21T06:01:00;100928.78;;;7.21;100.00
13732;BME280;6937;56.096;12.664;2024-02-21T06:03:28;100920.88;;;7.20;100.00
13732;BME280;6937;56.096;12.664;2024-02-21T06:05:53;100924.50;;;7.19;100.00
13732;BME280;6937;56.096;12.664;2024-02-21T06:08:19;100919.50;;;7.13;100.00
13732;BME280;6937;56.096;12.664;2024-02-21T06:10:45;100924.94;;;7.11;100.00
13732;BME280;6937;56.096;12.664;2024-02-21T06:13:10;100909.75;;;7.13;100.00
13732;BME280;6937;56.096;12.664;2024-02-21T06:15:36;100903.50;;;7.14;100.00
13732;BME280;6937;56.096;12.664;2024-02-21T06:18:01;100910.59;;;7.14;100.00
13732;BME280;6937;56.096;12.664;2024-02-21T06:20:27;100918.66;;;7.12;100.00
13732;BME280;6937;56.096;12.664;2024-02-21T06:22:53;100908.88;;;7.13;100.00
13732;BME280;6937;56.096;12.664;2024-02-21T06:25:18;100914.19;;;7.13;100.00
13732;BME280;6937;56.096;12.664;2024-02-21T06:27:44;100906.91;;;7.16;100.00
13732;BME280;6937;56.096;12.664;2024-02-21T06:30:09;100906.06;;;7.16;100.00
13732;BME280;6937;56.096;12.664;2024-02-21T06:32:35;100904.25;;;7.16;100.00
13732;BME280;6937;56.096;12.664;2024-02-21T06:35:00;100898.34;;;7.11;100.00
13732;BME280;6937;56.096;12.664;2024-02-21T06:37:27;100894.66;;;7.14;100.00
13732;BME280;6937;56.096;12.664;2024-02-21T06:39:52;100887.72;;;7.11;100.00
13732;BME280;6937;56.096;12.664;2024-02-21T06:42:18;100909.75;;;7.13;100.00
13732;BME280;6937;56.096;12.664;2024-02-21T06:44:44;100904.09;;;7.19;100.00
13732;BME280;6937;56.096;12.664;2024-02-21T06:47:09;100909.31;;;7.21;100.00
13732;BME280;6937;56.096;12.664;2024-02-21T06:49:35;100890.72;;;7.21;100.00
13732;BME280;6937;56.096;12.664;2024-02-21T06:52:04;100901.53;;;7.18;100.00
13732;BME280;6937;56.096;12.664;2024-02-21T06:54:30;100903.50;;;7.14;100.00
13732;BME280;6937;56.096;12.664;2024-02-21T06:56:55;100898.00;;;7.17;100.00
13732;BME280;6937;56.096;12.664;2024-02-21T06:59:20;100886.50;;;7.17;100.00
13732;BME280;6937;56.096;12.664;2024-02-21T07:01:51;100878.72;;;7.14;100.00
13732;BME280;6937;56.096;12.664;2024-02-21T07:04:17;100871.53;;;7.16;100.00
13732;BME280;6937;56.096;12.664;2024-02-21T07:06:42;100877.00;;;7.13;100.00
13732;BME280;6937;56.096;12.664;2024-02-21T07:09:07;100859.34;;;7.12;100.00
13732;BME280;6937;56.096;12.664;2024-02-21T07:11:33;100862.16;;;7.09;100.00
13732;BME280;6937;56.096;12.664;2024-02-21T07:13:58;100859.59;;;7.07;100.00
13732;BME280;6937;56.096;12.664;2024-02-21T07:16:23;100860.66;;;7.05;100.00
13732;BME280;6937;56.096;12.664;2024-02-21T07:18:49;100866.03;;;7.03;100.00
13732;BME280;6937;56.096;12.664;2024-02-21T07:21:14;100859.34;;;6.96;100.00
13732;BME280;6937;56.096;12.664;2024-02-21T07:23:43;100872.97;;;6.90;100.00
13732;BME280;6937;56.096;12.664;2024-02-21T07:26:08;100872.97;;;6.90;100.00
13732;BME280;6937;56.096;12.664;2024-02-21T07:28:34;100876.22;;;6.95;100.00
13732;BME280;6937;56.096;12.664;2024-02-21T07:31:00;100865.16;;;6.87;100.00
13732;BME280;6937;56.096;12.664;2024-02-21T07:33:25;100880.25;;;6.87;100.00
13732;BME280;6937;56.096;12.664;2024-02-21T07:35:51;100871.34;;;6.88;100.00
13732;BME280;6937;56.096;12.664;2024-02-21T07:38:16;100868.59;;;6.89;100.00
13732;BME280;6937;56.096;12.664;2024-02-21T07:40:46;100850.53;;;6.96;100.00
13732;BME280;6937;56.096;12.664;2024-02-21T07:43:11;100850.44;;;6.97;100.00
13732;BME280;6937;56.096;12.664;2024-02-21T07:45:37;100853.25;;;6.94;100.00
13732;BME280;6937;56.096;12.664;2024-02-21T07:48:07;100840.81;;;6.95;100.00
13732;BME280;6937;56.096;12.664;2024-02-21T07:50:33;100828.59;;;6.92;100.00
13732;BME280;6937;56.096;12.664;2024-02-21T07:52:58;100836.72;;;6.89;100.00
13732;BME280;6937;56.096;12.664;2024-02-21T07:55:24;100837.22;;;6.96;100.00
13732;BME280;6937;56.096;12.664;2024-02-21T07:57:49;100831.91;;;6.96;100.00
13732;BME280;6937;56.096;12.664;2024-02-21T08:00:16;100829.50;;;6.91;100.00
13732;BME280;6937;56.096;12.664;2024-02-21T08:02:53;100829.69;;;6.88;100.00
13732;BME280;6937;56.096;12.664;2024-02-21T08:05:18;100834.81;;;6.75;100.00
13732;BME280;6937;56.096;12.664;2024-02-21T08:07:44;100839.78;;;6.66;100.00
13732;BME280;6937;56.096;12.664;2024-02-21T08:10:10;100845.41;;;6.60;100.00
13732;BME280;6937;56.096;12.664;2024-02-21T08:12:35;100846.97;;;6.48;100.00
13732;BME280;6937;56.096;12.664;2024-02-21T08:15:02;100845.84;;;6.37;100.00
13732;BME280;6937;56.096;12.664;2024-02-21T08:17:29;100840.78;;;6.32;100.00
13732;BME280;6937;56.096;12.664;2024-02-21T08:19:54;100836.63;;;6.26;100.00
13732;BME280;6937;56.096;12.664;2024-02-21T08:22:19;100830.72;;;6.21;100.00
13732;BME280;6937;56.096;12.664;2024-02-21T08:24:45;100848.06;;;6.11;100.00
13732;BME280;6937;56.096;12.664;2024-02-21T08:27:10;100842.91;;;6.08;100.00
13732;BME280;6937;56.096;12.664;2024-02-21T08:29:36;100848.56;;;6.02;100.00
13732;BME280;6937;56.096;12.664;2024-02-21T08:32:01;100848.72;;;5.99;100.00
13732;BME280;6937;56.096;12.664;2024-02-21T08:34:27;100847.41;;;5.91;100.00
13732;BME280;6937;56.096;12.664;2024-02-21T08:36:54;100865.91;;;5.92;100.00
13732;BME280;6937;56.096;12.664;2024-02-21T08:39:20;100867.75;;;5.90;100.00
13732;BME280;6937;56.096;12.664;2024-02-21T08:41:46;100871.28;;;5.91;100.00
13732;BME280;6937;56.096;12.664;2024-02-21T08:44:11;100873.13;;;5.89;100.00
13732;BME280;6937;56.096;12.664;2024-02-21T08:46:37;100874.84;;;5.90;100.00
13732;BME280;6937;56.096;12.664;2024-02-21T08:49:05;100875.72;;;5.90;100.00
13732;BME280;6937;56.096;12.664;2024-02-21T08:51:31;100864.16;;;5.91;100.00
13732;BME280;6937;56.096;12.664;2024-02-21T08:53:56;100870.25;;;5.93;100.00
13732;BME280;6937;56.096;12.664;2024-02-21T08:56:21;100878.28;;;5.92;100.00
13732;BME280;6937;56.096;12.664;2024-02-21T08:58:47;100877.34;;;5.93;100.00
13732;BME280;6937;56.096;12.664;2024-02-21T09:01:12;100882.75;;;5.91;100.00
13732;BME280;6937;56.096;12.664;2024-02-21T09:03:38;100888.75;;;5.95;100.00
13732;BME280;6937;56.096;12.664;2024-02-21T09:06:05;100893.94;;;5.96;100.00
13732;BME280;6937;56.096;12.664;2024-02-21T09:08:30;100902.78;;;5.97;100.00
13732;BME280;6937;56.096;12.664;2024-02-21T09:10:56;100886.00;;;5.96;100.00
13732;BME280;6937;56.096;12.664;2024-02-21T09:13:21;100897.41;;;5.98;100.00
13732;BME280;6937;56.096;12.664;2024-02-21T09:15:48;100892.03;;;6.00;100.00
13732;BME280;6937;56.096;12.664;2024-02-21T09:18:14;100902.69;;;5.98;100.00
13732;BME280;6937;56.096;12.664;2024-02-21T09:20:39;100887.72;;;5.97;100.00
13732;BME280;6937;56.096;12.664;2024-02-21T09:23:05;100892.84;;;6.00;100.00
13732;BME280;6937;56.096;12.664;2024-02-21T09:25:30;100913.25;;;6.00;100.00
13732;BME280;6937;56.096;12.664;2024-02-21T09:27:56;100900.13;;;5.97;100.00
13732;BME280;6937;56.096;12.664;2024-02-21T09:30:23;100916.03;;;5.97;100.00
13732;BME280;6937;56.096;12.664;2024-02-21T09:32:49;100910.66;;;5.98;100.00
13732;BME280;6937;56.096;12.664;2024-02-21T09:35:14;100926.13;;;6.07;100.00
13732;BME280;6937;56.096;12.664;2024-02-21T09:37:40;100925.00;;;6.11;100.00
13732;BME280;6937;56.096;12.664;2024-02-21T09:40:06;100922.22;;;6.14;100.00
13732;BME280;6937;56.096;12.664;2024-02-21T09:42:39;100922.81;;;6.19;100.00
13732;BME280;6937;56.096;12.664;2024-02-21T09:45:28;100939.31;;;6.26;100.00
13732;BME280;6937;56.096;12.664;2024-02-21T09:48:19;100959.34;;;6.31;100.00
13732;BME280;6937;56.096;12.664;2024-02-21T09:50:50;100946.38;;;6.43;100.00
13732;BME280;6937;56.096;12.664;2024-02-21T09:53:18;100946.13;;;6.47;100.00
13732;BME280;6937;56.096;12.664;2024-02-21T09:55:44;100954.16;;;6.46;100.00
13732;BME280;6937;56.096;12.664;2024-02-21T09:58:10;100947.06;;;6.46;100.00
13732;BME280;6937;56.096;12.664;2024-02-21T10:00:36;100954.16;;;6.46;100.00
13732;BME280;6937;56.096;12.664;2024-02-21T10:03:02;100956.13;;;6.42;100.00
13732;BME280;6937;56.096;12.664;2024-02-21T10:05:33;100965.19;;;6.38;100.00
13732;BME280;6937;56.096;12.664;2024-02-21T10:07:59;100965.13;;;6.40;100.00
13732;BME280;6937;56.096;12.664;2024-02-21T10:10:24;100988.09;;;6.41;100.00
13732;BME280;6937;56.096;12.664;2024-02-21T10:12:53;100970.19;;;6.44;100.00
13732;BME280;6937;56.096;12.664;2024-02-21T10:15:23;100967.28;;;6.49;100.00
13732;BME280;6937;56.096;12.664;2024-02-21T10:17:57;100963.00;;;6.46;100.00
13732;BME280;6937;56.096;12.664;2024-02-21T10:20:23;100969.00;;;6.50;100.00
13732;BME280;6937;56.096;12.664;2024-02-21T10:22:48;100980.09;;;6.58;100.00
13732;BME280;6937;56.096;12.664;2024-02-21T10:25:14;100972.13;;;6.58;100.00
13732;BME280;6937;56.096;12.664;2024-02-21T10:27:40;100962.44;;;6.57;100.00
13732;BME280;6937;56.096;12.664;2024-02-21T10:30:12;100966.66;;;6.61;100.00
13732;BME280;6937;56.096;12.664;2024-02-21T10:32:58;100984.81;;;6.68;100.00
13732;BME280;6937;56.096;12.664;2024-02-21T10:35:32;100970.44;;;6.72;100.00
13732;BME280;6937;56.096;12.664;2024-02-21T10:37:58;100974.59;;;6.78;100.00
13732;BME280;6937;56.096;12.664;2024-02-21T10:40:25;100978.81;;;6.82;100.00
13732;BME280;6937;56.096;12.664;2024-02-21T10:43:00;100980.31;;;6.86;100.00
13732;BME280;6937;56.096;12.664;2024-02-21T10:45:35;100989.09;;;6.88;100.00
13732;BME280;6937;56.096;12.664;2024-02-21T10:48:14;100984.72;;;6.87;100.00
13732;BME280;6937;56.096;12.664;2024-02-21T10:50:57;100953.00;;;6.84;100.00
13732;BME280;6937;56.096;12.664;2024-02-21T10:56:14;100989.38;;;6.99;100.00
13732;BME280;6937;56.096;12.664;2024-02-21T10:58:42;100980.06;;;7.08;100.00
13732;BME280;6937;56.096;12.664;2024-02-21T11:01:09;100973.22;;;7.19;100.00
13732;BME280;6937;56.096;12.664;2024-02-21T11:03:35;100950.47;;;7.29;100.00
13732;BME280;6937;56.096;12.664;2024-02-21T11:06:02;100949.38;;;7.34;100.00
13732;BME280;6937;56.096;12.664;2024-02-21T11:08:30;100940.34;;;7.36;100.00
13732;BME280;6937;56.096;12.664;2024-02-21T11:10:59;100959.66;;;7.40;100.00
13732;BME280;6937;56.096;12.664;2024-02-21T11:13:37;100950.66;;;7.42;100.00
13732;BME280;6937;56.096;12.664;2024-02-21T11:16:10;100940.09;;;7.41;100.00
13732;BME280;6937;56.096;12.664;2024-02-21T11:18:39;100953.41;;;7.41;100.00
13732;BME280;6937;56.096;12.664;2024-02-21T11:21:04;100951.94;;;7.35;100.00
13732;BME280;6937;56.096;12.664;2024-02-21T11:23:30;100953.56;;;7.38;100.00
13732;BME280;6937;56.096;12.664;2024-02-21T11:26:06;100930.66;;;7.35;100.00
13732;BME280;6937;56.096;12.664;2024-02-21T11:28:32;100931.34;;;7.39;100.00
13732;BME280;6937;56.096;12.664;2024-02-21T11:31:08;100936.41;;;7.43;100.00
13732;BME280;6937;56.096;12.664;2024-02-21T11:33:34;100933.66;;;7.45;100.00
13732;BME280;6937;56.096;12.664;2024-02-21T11:36:01;100933.94;;;7.40;100.00
13732;BME280;6937;56.096;12.664;2024-02-21T11:38:26;100932.72;;;7.46;100.00
13732;BME280;6937;56.096;12.664;2024-02-21T11:40:52;100924.75;;;7.46;100.00
13732;BME280;6937;56.096;12.664;2024-02-21T11:43:17;100928.97;;;7.50;100.00
13732;BME280;6937;56.096;12.664;2024-02-21T11:45:42;100918.31;;;7.50;100.00
13732;BME280;6937;56.096;12.664;2024-02-21T11:48:08;100926.31;;;7.50;100.00
13732;BME280;6937;56.096;12.664;2024-02-21T11:50:37;100905.97;;;7.49;100.00
13732;BME280;6937;56.096;12.664;2024-02-21T11:53:04;100920.13;;;7.49;100.00
13732;BME280;6937;56.096;12.664;2024-02-21T11:55:29;100911.97;;;7.52;100.00
13732;BME280;6937;56.096;12.664;2024-02-21T11:57:55;100921.75;;;7.52;100.00
13732;BME280;6937;56.096;12.664;2024-02-21T12:00:21;100912.63;;;7.56;100.00
13732;BME280;6937;56.096;12.664;2024-02-21T12:02:46;100927.56;;;7.58;100.00
13732;BME280;6937;56.096;12.664;2024-02-21T12:05:12;100923.34;;;7.54;100.00
13732;BME280;6937;56.096;12.664;2024-02-21T12:07:39;100922.41;;;7.55;100.00
13732;BME280;6937;56.096;12.664;2024-02-21T12:10:10;100917.53;;;7.63;100.00
13732;BME280;6937;56.096;12.664;2024-02-21T12:12:39;100910.16;;;7.68;100.00
13732;BME280;6937;56.096;12.664;2024-02-21T12:15:06;100913.28;;;7.75;100.00
13732;BME280;6937;56.096;12.664;2024-02-21T12:17:39;100929.00;;;7.80;100.00
13732;BME280;6937;56.096;12.664;2024-02-21T12:20:06;100923.38;;;7.84;100.00
13732;BME280;6937;56.096;12.664;2024-02-21T12:22:38;100925.59;;;7.92;100.00
13732;BME280;6937;56.096;12.664;2024-02-21T12:25:23;100914.50;;;7.99;100.00
13732;BME280;6937;56.096;12.664;2024-02-21T12:27:51;100918.16;;;8.12;100.00
13732;BME280;6937;56.096;12.664;2024-02-21T12:30:17;100925.09;;;8.15;100.00
13732;BME280;6937;56.096;12.664;2024-02-21T12:32:42;100911.91;;;8.13;100.00
13732;BME280;6937;56.096;12.664;2024-02-21T12:35:08;100919.88;;;8.13;100.00
13732;BME280;6937;56.096;12.664;2024-02-21T12:37:33;100902.47;;;8.08;100.00
13732;BME280;6937;56.096;12.664;2024-02-21T12:39:59;100903.91;;;8.13;100.00
13732;BME280;6937;56.096;12.664;2024-02-21T12:42:25;100893.34;;;8.12;100.00
13732;BME280;6937;56.096;12.664;2024-02-21T12:44:52;100890.69;;;8.12;100.00
13732;BME280;6937;56.096;12.664;2024-02-21T12:47:18;100895.47;;;8.21;100.00
13732;BME280;6937;56.096;12.664;2024-02-21T12:49:45;100893.34;;;8.26;100.00